Time;durP1;ratioP1;P1;durP2;ratioP2;P2;SDS_P1;SDS_P2;PMS_P1;PMS_P2;Temp;Humidity;BMP_temperature;BMP_pressure;BME280_temperature;BME280_humidity;BME280_pressure;Samples;Min_cycle;Max_cycle;Signal;HPM_P1;HPM_P2
2022/09/29 00:01:23;;;;;;;15.18;8.80;;;;;;;17.92;86.36;100627.79;1961810;73;21029;-63
2022/09/29 00:03:52;;;;;;;16.17;8.63;;;;;;;17.88;86.12;100629.47;1961723;73;21178;-64
2022/09/29 00:06:21;;;;;;;14.98;8.90;;;;;;;17.79;85.82;100638.08;1961904;73;21109;-63
2022/09/29 00:08:49;;;;;;;19.90;8.08;;;;;;;17.67;85.60;100641.98;1961826;73;21026;-63
2022/09/29 00:11:20;;;;;;;17.02;8.23;;;;;;;17.54;85.51;100642.48;1961766;73;21002;-63
2022/09/29 00:13:48;;;;;;;14.60;8.70;;;;;;;17.47;85.48;100645.20;1961924;73;21026;-63
2022/09/29 00:16:17;;;;;;;21.57;9.50;;;;;;;17.40;85.45;100650.56;1961713;73;21030;-64
2022/09/29 00:18:46;;;;;;;22.48;10.70;;;;;;;17.35;85.57;100653.08;1961816;73;21033;-63
2022/09/29 00:21:22;;;;;;;26.17;12.60;;;;;;;17.34;86.02;100654.50;1961829;73;21116;-64
2022/09/29 00:23:49;;;;;;;30.25;12.28;;;;;;;17.33;86.73;100652.78;1961949;73;21456;-63
2022/09/29 00:26:21;;;;;;;25.60;12.15;;;;;;;17.32;87.42;100654.61;1961828;73;21114;-63
2022/09/29 00:28:54;;;;;;;27.07;11.38;;;;;;;17.32;87.52;100658.59;1952150;72;21026;-64
2022/09/29 00:31:25;;;;;;;20.52;11.28;;;;;;;17.30;87.76;100660.52;1952296;73;21099;-63
2022/09/29 00:33:53;;;;;;;23.05;11.08;;;;;;;17.26;88.13;100660.81;1951438;73;21108;-64
2022/09/29 00:36:24;;;;;;;16.45;9.70;;;;;;;17.24;88.25;100657.41;1952256;73;21029;-63
2022/09/29 00:38:53;;;;;;;20.00;11.12;;;;;;;17.18;88.12;100661.34;1952185;73;21115;-63
2022/09/29 00:41:24;;;;;;;22.93;10.50;;;;;;;17.14;88.03;100661.19;1952013;73;21531;-63
2022/09/29 00:44:04;;;;;;;15.58;9.95;;;;;;;17.09;88.08;100661.48;1952279;73;21084;-63
2022/09/29 00:46:54;;;;;;;17.62;10.25;;;;;;;17.05;88.02;100667.13;1952246;73;21018;-64
2022/09/29 00:49:28;;;;;;;20.23;10.13;;;;;;;17.02;88.01;100665.98;1952160;73;21108;-64
2022/09/29 00:52:00;;;;;;;18.25;10.68;;;;;;;16.99;88.01;100668.39;1952149;73;21162;-63
2022/09/29 00:54:32;;;;;;;16.52;9.70;;;;;;;16.97;88.06;100672.48;1952376;73;21004;-63
2022/09/29 00:57:02;;;;;;;19.95;8.70;;;;;;;16.96;88.19;100671.25;1951684;73;21488;-63
2022/09/29 00:59:34;;;;;;;18.75;9.68;;;;;;;16.98;88.41;100673.33;1952129;73;21018;-63
2022/09/29 01:02:04;;;;;;;17.87;9.55;;;;;;;16.94;88.24;100676.66;1937265;73;21038;-64
2022/09/29 01:04:33;;;;;;;21.45;9.48;;;;;;;16.87;87.95;100679.35;1952265;72;21014;-64
2022/09/29 01:07:02;;;;;;;17.10;7.87;;;;;;;16.80;87.75;100689.98;1952159;73;21112;-64
2022/09/29 01:09:34;;;;;;;17.73;9.63;;;;;;;16.72;87.62;100692.31;1952021;73;21504;-64
2022/09/29 01:12:03;;;;;;;19.85;8.98;;;;;;;16.63;87.52;100692.91;1952146;73;21531;-64
2022/09/29 01:14:34;;;;;;;18.90;11.22;;;;;;;16.54;87.51;100703.20;1952073;73;21026;-64
2022/09/29 01:17:04;;;;;;;24.40;11.88;;;;;;;16.48;87.69;100696.94;1952070;73;21034;-63
2022/09/29 01:19:54;;;;;;;26.17;11.90;;;;;;;16.52;88.33;100701.09;1952112;73;21458;-64
2022/09/29 01:22:41;;;;;;;19.48;10.75;;;;;;;16.56;89.10;100698.64;1952293;73;21046;-63
2022/09/29 01:25:42;;;;;;;24.12;12.25;;;;;;;16.58;89.29;100709.14;1951983;73;21020;-64
2022/09/29 01:28:25;;;;;;;22.40;10.15;;;;;;;16.58;89.34;100714.45;1955474;72;21496;-63
2022/09/29 01:31:04;;;;;;;;;;;;;;;16.60;89.29;100714.75;1957888;73;21002;-64
2022/09/29 01:33:35;;;;;;;23.90;11.65;;;;;;;16.63;89.39;100716.84;1961676;73;20154;-65
2022/09/29 01:36:06;;;;;;;23.10;11.43;;;;;;;16.66;89.60;100716.16;1961738;73;21030;-63
2022/09/29 01:38:41;;;;;;;21.97;10.70;;;;;;;16.70;89.70;100716.33;1961059;73;21542;-63
2022/09/29 01:41:13;;;;;;;20.05;11.20;;;;;;;16.72;89.84;100710.44;1961199;73;21069;-64
2022/09/29 01:43:44;;;;;;;19.10;9.78;;;;;;;16.71;89.72;100714.52;1961724;73;21018;-64
2022/09/29 01:46:21;;;;;;;21.15;9.80;;;;;;;16.70;89.57;100720.32;1961202;73;21092;-63
2022/09/29 01:48:53;;;;;;;15.35;8.33;;;;;;;16.68;89.42;100722.72;1961809;73;20986;-63
2022/09/29 01:51:24;;;;;;;14.87;8.10;;;;;;;16.66;89.32;100728.61;1961761;73;21096;-63
2022/09/29 01:53:56;;;;;;;18.55;9.60;;;;;;;16.64;89.23;100737.16;1959930;73;21020;-63
2022/09/29 01:56:27;;;;;;;16.15;7.97;;;;;;;16.58;89.22;100742.37;1961639;73;21014;-63
2022/09/29 01:59:20;;;;;;;17.37;8.83;;;;;;;16.54;89.23;100735.55;1958201;71;21022;-63
2022/09/29 02:01:51;;;;;;;16.77;8.90;;;;;;;16.51;89.18;100733.11;1961826;72;21030;-63
2022/09/29 02:04:29;;;;;;;18.02;8.23;;;;;;;16.49;89.16;100733.66;1961832;73;21013;-63
2022/09/29 02:07:03;;;;;;;16.30;9.25;;;;;;;16.45;89.07;100731.70;1961500;73;21117;-63
2022/09/29 02:09:34;;;;;;;17.82;9.08;;;;;;;16.46;89.32;100731.22;1955529;73;20997;-63
2022/09/29 02:12:06;;;;;;;18.75;8.68;;;;;;;16.44;89.25;100738.44;1961762;73;21543;-63
2022/09/29 02:14:37;;;;;;;16.55;9.68;;;;;;;16.41;89.44;100740.79;1961701;73;21091;-63
2022/09/29 02:17:11;;;;;;;18.37;9.13;;;;;;;16.37;89.78;100744.12;1960489;73;21107;-65
2022/09/29 02:19:42;;;;;;;17.20;8.95;;;;;;;16.34;89.94;100747.44;1961981;73;21026;-65
2022/09/29 02:22:11;;;;;;;21.75;8.78;;;;;;;16.31;89.93;100746.33;1961893;73;21026;-64
2022/09/29 02:24:40;;;;;;;17.73;8.55;;;;;;;16.27;89.84;100742.13;1961863;73;21107;-63
2022/09/29 02:27:09;;;;;;;18.15;9.50;;;;;;;16.21;89.59;100746.03;1961870;73;21449;-63
2022/09/29 02:29:38;;;;;;;17.12;8.50;;;;;;;16.14;89.43;100749.56;1987035;72;21107;-64
2022/09/29 02:32:09;;;;;;;18.07;8.55;;;;;;;16.06;89.30;100744.34;1992320;72;21463;-63
2022/09/29 02:34:42;;;;;;;18.73;10.48;;;;;;;16.03;89.24;100749.37;1992460;72;21026;-63
2022/09/29 02:37:16;;;;;;;19.45;11.08;;;;;;;16.00;89.19;100754.87;1992563;72;21024;-63
2022/09/29 02:40:02;;;;;;;20.85;10.35;;;;;;;15.97;89.32;100752.39;1992342;72;21047;-63
2022/09/29 02:42:50;;;;;;;20.80;10.43;;;;;;;15.93;89.19;100752.20;1990770;72;21134;-63
2022/09/29 02:45:41;;;;;;;22.58;9.88;;;;;;;15.86;89.36;100758.84;1991132;72;21121;-63
2022/09/29 02:48:19;;;;;;;15.55;9.65;;;;;;;15.78;89.54;100755.33;1992428;72;21097;-63
2022/09/29 02:51:06;;;;;;;22.32;10.43;;;;;;;15.72;89.67;100767.14;1992391;72;21052;-64
2022/09/29 02:53:37;;;;;;;21.07;9.80;;;;;;;15.68;89.68;100768.72;1992367;72;21117;-64
2022/09/29 02:56:25;;;;;;;21.35;10.78;;;;;;;15.62;89.95;100771.27;1992119;72;21140;-63
2022/09/29 02:59:13;;;;;;;20.70;9.80;;;;;;;15.57;90.06;100770.72;1992204;72;21184;-65
2022/09/29 03:01:54;;;;;;;20.95;10.05;;;;;;;15.50;90.30;100772.02;1991399;72;21130;-63
2022/09/29 03:04:26;;;;;;;20.17;10.75;;;;;;;15.46;90.23;100773.16;1992342;72;21537;-63
2022/09/29 03:06:55;;;;;;;21.02;10.90;;;;;;;15.39;90.27;100774.82;1992336;72;21015;-63
2022/09/29 03:09:24;;;;;;;20.57;10.00;;;;;;;15.35;90.35;100773.78;1992208;72;21036;-62
2022/09/29 03:11:53;;;;;;;20.45;10.05;;;;;;;15.30;90.44;100780.67;1992359;72;21435;-63
2022/09/29 03:17:11;;;;;;;19.90;9.55;;;;;;;15.21;90.72;100781.20;1906561;75;21022;-63
2022/09/29 03:19:39;;;;;;;20.80;10.98;;;;;;;15.15;90.97;100785.54;1906593;75;21037;-64
2022/09/29 03:22:08;;;;;;;19.87;9.90;;;;;;;15.12;91.25;100785.70;1906593;75;21096;-63
2022/09/29 03:24:37;;;;;;;19.35;10.23;;;;;;;15.09;91.32;100791.17;1906748;74;21026;-63
2022/09/29 03:27:06;;;;;;;18.07;9.28;;;;;;;15.05;91.34;100789.20;1906551;75;21030;-63
2022/09/29 03:29:34;;;;;;;22.30;11.45;;;;;;;15.03;91.13;100794.59;1906647;75;21057;-63
2022/09/29 03:32:04;;;;;;;24.87;13.15;;;;;;;15.02;91.18;100796.84;1906617;74;21038;-63
2022/09/29 03:34:34;;;;;;;21.05;12.68;;;;;;;15.00;91.40;100797.41;1906580;74;21014;-63
2022/09/29 03:37:03;;;;;;;21.50;13.00;;;;;;;14.99;91.55;100791.70;1906620;75;21492;-63
2022/09/29 03:39:31;;;;;;;25.12;10.70;;;;;;;14.99;91.80;100797.48;1906745;75;21037;-63
2022/09/29 03:42:00;;;;;;;19.02;9.93;;;;;;;14.97;91.52;100794.91;1906674;75;20998;-63
2022/09/29 03:44:29;;;;;;;16.65;9.10;;;;;;;14.95;91.33;100788.84;1906613;75;21461;-64
2022/09/29 03:46:57;;;;;;;20.77;9.80;;;;;;;14.95;91.26;100792.82;1906761;74;21082;-63
2022/09/29 03:49:26;;;;;;;15.72;8.78;;;;;;;14.92;91.20;100791.69;1906634;75;21519;-63
2022/09/29 03:51:55;;;;;;;15.30;9.40;;;;;;;14.95;91.16;100798.60;1906637;75;21101;-63
2022/09/29 03:54:25;;;;;;;22.30;10.30;;;;;;;14.97;91.06;100796.72;1906744;75;21038;-64
2022/09/29 03:56:53;;;;;;;27.07;11.15;;;;;;;15.00;91.13;100789.45;1906632;74;21112;-64
2022/09/29 03:59:22;;;;;;;20.57;10.70;;;;;;;15.04;90.98;100790.98;1906465;74;21040;-64
2022/09/29 04:01:51;;;;;;;21.55;10.40;;;;;;;15.08;91.03;100790.81;1906576;74;21462;-63
2022/09/29 04:04:20;;;;;;;21.77;9.53;;;;;;;15.11;91.02;100788.84;1906617;75;21099;-63
2022/09/29 04:06:48;;;;;;;21.35;9.38;;;;;;;15.15;91.00;100794.83;1906627;75;21010;-63
2022/09/29 04:09:17;;;;;;;17.90;9.18;;;;;;;15.19;90.81;100798.52;1906616;75;21046;-63
2022/09/29 04:11:46;;;;;;;15.65;9.00;;;;;;;15.26;90.68;100807.00;1906554;75;21077;-64
2022/09/29 04:14:14;;;;;;;16.97;8.48;;;;;;;15.33;90.44;100805.70;1906740;75;21029;-63
2022/09/29 04:16:43;;;;;;;16.70;8.15;;;;;;;15.38;90.32;100808.95;1906595;74;21148;-63
2022/09/29 04:19:11;;;;;;;12.50;7.47;;;;;;;15.42;90.15;100811.80;1906696;75;21133;-62
2022/09/29 04:21:41;;;;;;;12.63;7.90;;;;;;;15.51;90.01;100820.16;1906739;75;21042;-62
2022/09/29 04:24:10;;;;;;;13.83;7.70;;;;;;;15.56;89.80;100824.73;1906781;75;21097;-62
2022/09/29 04:26:38;;;;;;;14.73;7.42;;;;;;;15.64;89.59;100822.49;1906690;75;21014;-62
2022/09/29 04:29:08;;;;;;;12.33;7.28;;;;;;;15.77;89.44;100820.84;1906616;75;21117;-63
2022/09/29 04:31:36;;;;;;;10.85;7.08;;;;;;;15.91;89.24;100822.66;1906550;75;21038;-63
2022/09/29 04:34:05;;;;;;;18.10;9.28;;;;;;;16.03;88.91;100822.41;1906753;75;21529;-63
2022/09/29 04:36:34;;;;;;;17.37;9.05;;;;;;;16.15;88.68;100826.95;1906704;75;21050;-62
2022/09/29 04:39:02;;;;;;;12.90;7.58;;;;;;;16.35;88.43;100827.55;1906516;74;21018;-63
2022/09/29 04:41:33;;;;;;;14.55;8.38;;;;;;;16.40;88.24;100824.14;1906584;75;21550;-63
2022/09/29 04:44:02;;;;;;;13.38;7.87;;;;;;;16.43;88.10;100829.24;1906686;75;21037;-63
2022/09/29 04:46:31;;;;;;;12.03;7.05;;;;;;;16.45;87.95;100831.36;1906617;75;21014;-63
2022/09/29 04:49:00;;;;;;;13.43;7.08;;;;;;;16.49;87.71;100835.53;1906593;75;21034;-63
2022/09/29 04:51:29;;;;;;;22.37;6.60;;;;;;;16.52;87.46;100841.95;1906513;75;21077;-63
2022/09/29 04:53:59;;;;;;;14.55;6.95;;;;;;;16.56;87.31;100835.53;1906627;75;21042;-63
2022/09/29 04:56:30;;;;;;;12.47;6.30;;;;;;;16.64;87.30;100835.52;1906470;74;21053;-63
2022/09/29 04:58:59;;;;;;;13.13;5.67;;;;;;;16.74;87.33;100836.63;1906530;75;21500;-63
2022/09/29 05:01:29;;;;;;;14.73;5.08;;;;;;;16.81;87.13;100836.63;1906544;75;21119;-62
2022/09/29 05:03:58;;;;;;;10.20;5.12;;;;;;;16.88;86.72;100840.64;1906438;75;21546;-64
2022/09/29 05:06:26;;;;;;;8.70;5.45;;;;;;;16.96;85.92;100842.80;1906536;75;21046;-64
2022/09/29 05:08:55;;;;;;;13.48;5.10;;;;;;;17.05;85.35;100836.04;1906523;75;21425;-64
2022/09/29 05:11:24;;;;;;;14.38;4.92;;;;;;;17.19;84.81;100837.33;1906498;75;21034;-63
2022/09/29 05:13:52;;;;;;;7.15;4.65;;;;;;;17.43;84.15;100843.30;1906507;75;21418;-63
2022/09/29 05:16:21;;;;;;;10.90;4.95;;;;;;;17.91;83.67;100846.34;1906393;74;21061;-64
2022/09/29 05:18:50;;;;;;;8.45;3.50;;;;;;;18.62;82.82;100842.75;1906498;75;21571;-63
2022/09/29 05:24:07;;;;;;;8.63;3.37;;;;;;;19.51;80.65;100844.27;1928685;74;21051;-61
2022/09/29 05:26:36;;;;;;;8.68;3.35;;;;;;;19.82;79.44;100842.84;1895338;76;21044;-63
2022/09/29 05:29:05;;;;;;;7.65;2.98;;;;;;;20.25;76.95;100849.36;1928521;74;21042;-63
2022/09/29 05:31:34;;;;;;;7.40;3.80;;;;;;;20.67;76.02;100853.66;1928701;74;21007;-63
2022/09/29 05:34:02;;;;;;;7.83;3.00;;;;;;;21.13;77.20;100861.98;1928628;74;21098;-63
2022/09/29 05:36:31;;;;;;;7.28;2.27;;;;;;;21.47;77.77;100856.58;1928616;74;21011;-63
2022/09/29 05:39:00;;;;;;;5.97;2.42;;;;;;;21.74;75.68;100852.55;1928580;74;21035;-63
2022/09/29 05:41:29;;;;;;;3.47;2.45;;;;;;;22.11;73.86;100849.41;1895185;76;21060;-65
2022/09/29 05:44:00;;;;;;;4.22;1.90;;;;;;;22.59;71.87;100854.69;1928694;74;21027;-63
2022/09/29 05:46:29;;;;;;;4.67;2.02;;;;;;;23.25;70.81;100854.20;1928629;74;21046;-62
2022/09/29 05:48:58;;;;;;;6.60;2.02;;;;;;;23.94;69.79;100849.20;1928744;74;21485;-62
2022/09/29 05:51:27;;;;;;;5.30;1.95;;;;;;;24.62;68.31;100855.75;1895441;76;21059;-62
2022/09/29 05:53:56;;;;;;;4.85;1.60;;;;;;;25.17;66.11;100854.01;1928641;74;21105;-63
2022/09/29 05:56:26;;;;;;;9.33;1.92;;;;;;;25.64;64.55;100856.52;1895426;76;21088;-63
2022/09/29 05:58:55;;;;;;;5.28;1.75;;;;;;;26.08;63.82;100849.81;1928651;74;21039;-63
2022/09/29 06:01:26;;;;;;;8.83;2.22;;;;;;;26.35;59.93;100849.28;1895385;76;21499;-63
2022/09/29 06:03:56;;;;;;;5.72;1.82;;;;;;;26.49;58.95;100851.39;1928803;74;21011;-63
2022/09/29 06:06:28;;;;;;;6.65;1.75;;;;;;;26.90;59.11;100849.39;1928692;74;21019;-64
2022/09/29 06:08:59;;;;;;;4.05;1.70;;;;;;;27.36;58.52;100847.67;1928680;74;21473;-62
2022/09/29 06:11:35;;;;;;;4.58;1.50;;;;;;;27.73;55.87;100851.23;1895523;76;21056;-63
2022/09/29 06:14:01;;;;;;;4.60;2.07;;;;;;;28.32;51.94;100856.42;1928552;74;21084;-62
2022/09/29 06:16:32;;;;;;;5.42;1.30;;;;;;;28.32;51.94;100856.42;1928720;74;22066;-62
2022/09/29 06:19:02;;;;;;;2.52;1.32;;;;;;;28.55;51.67;100866.53;1928979;74;21100;-63
2022/09/29 06:21:34;;;;;;;5.78;1.30;;;;;;;28.54;49.87;100862.98;1895425;76;21048;-62
2022/09/29 06:24:03;;;;;;;3.17;1.30;;;;;;;28.37;48.35;100867.58;1918036;74;21137;-62
2022/09/29 06:26:32;;;;;;;2.40;1.40;;;;;;;28.18;47.40;100864.73;1963510;73;21465;-62
2022/09/29 06:29:00;;;;;;;7.90;1.42;;;;;;;28.32;47.59;100869.95;1963608;73;21038;-63
2022/09/29 06:31:30;;;;;;;2.20;1.10;;;;;;;28.61;46.74;100873.98;1963404;73;21027;-63
2022/09/29 06:34:01;;;;;;;2.22;1.35;;;;;;;28.90;46.13;100870.61;1963498;73;21485;-63
2022/09/29 06:42:20;;;;;;;4.28;1.47;;;;;;;29.01;42.86;100878.86;1982027;72;21007;-63
2022/09/29 06:45:11;;;;;;;5.58;1.72;;;;;;;29.03;43.16;100884.94;1923466;74;21077;-61
2022/09/29 06:47:39;;;;;;;3.75;1.50;;;;;;;29.07;41.84;100884.95;1923483;74;21030;-61
2022/09/29 06:50:09;;;;;;;6.95;1.85;;;;;;;29.23;42.07;100884.89;1923671;74;21132;-64
2022/09/29 06:52:38;;;;;;;5.37;1.57;;;;;;;29.58;41.80;100886.66;1923419;74;21100;-63
2022/09/29 06:55:07;;;;;;;4.83;2.40;;;;;;;29.79;40.78;100884.67;1923454;74;21026;-63
2022/09/29 06:57:37;;;;;;;3.15;1.10;;;;;;;29.79;39.55;100890.10;1923553;74;21003;-63
2022/09/29 07:00:26;;;;;;;4.60;1.65;;;;;;;29.89;40.11;100888.48;1923413;74;21106;-63
2022/09/29 07:02:55;;;;;;;3.80;1.00;;;;;;;30.05;39.98;100888.86;1834981;78;21132;-63
2022/09/29 07:05:24;;;;;;;3.75;1.20;;;;;;;30.24;39.51;100896.98;1835105;78;21075;-63
2022/09/29 07:07:54;;;;;;;2.85;1.10;;;;;;;30.60;39.08;100894.94;1835105;78;21106;-63
2022/09/29 07:10:23;;;;;;;2.85;1.10;;;;;;;30.74;38.71;100892.70;1835078;78;21112;-63
2022/09/29 07:12:54;;;;;;;4.25;1.20;;;;;;;31.28;38.66;100898.81;1835095;78;21542;-63
2022/09/29 07:15:30;;;;;;;4.95;1.50;;;;;;;31.48;38.23;100894.45;1835014;78;21127;-64
2022/09/29 07:17:53;;;;;;;5.83;1.22;;;;;;;31.71;37.77;100901.61;1833942;78;21042;-63
2022/09/29 07:20:22;;;;;;;5.70;1.10;;;;;;;31.77;37.33;100888.56;1835100;78;21557;-63
2022/09/29 07:22:51;;;;;;;3.35;0.95;;;;;;;32.02;37.31;100884.04;1835154;78;21205;-63
2022/09/29 07:25:19;;;;;;;3.65;1.57;;;;;;;32.35;36.50;100893.84;1835200;78;21053;-62
2022/09/29 07:27:51;;;;;;;4.95;0.90;;;;;;;32.66;36.40;100892.59;1835094;78;21093;-63
2022/09/29 07:30:20;;;;;;;4.67;1.60;;;;;;;33.07;35.46;100887.61;1835439;78;21086;-62
2022/09/29 07:32:49;;;;;;;4.62;1.77;;;;;;;33.13;34.05;100883.28;1835317;77;22262;-63
2022/09/29 07:35:18;;;;;;;4.22;1.40;;;;;;;32.82;33.04;100882.70;1835235;77;21514;-63
2022/09/29 07:37:54;;;;;;;2.47;1.10;;;;;;;32.62;33.90;100881.77;1835108;78;21074;-63
2022/09/29 07:40:25;;;;;;;4.00;1.62;;;;;;;33.07;34.34;100884.38;1835010;78;21445;-64
2022/09/29 07:42:54;;;;;;;4.22;1.75;;;;;;;33.51;32.84;100882.71;1835190;78;21026;-63
2022/09/29 07:45:22;;;;;;;6.05;1.47;;;;;;;33.18;32.63;100885.70;1835110;78;21075;-63
2022/09/29 07:47:51;;;;;;;2.65;1.20;;;;;;;33.55;33.10;100884.83;1835095;78;21057;-63
2022/09/29 07:50:20;;;;;;;3.67;1.30;;;;;;;33.72;32.80;100883.09;1835205;78;21095;-63
2022/09/29 07:52:51;;;;;;;4.30;1.35;;;;;;;34.12;33.00;100878.42;1834927;78;21196;-63
2022/09/29 07:55:20;;;;;;;4.10;1.62;;;;;;;34.92;32.51;100874.70;1835087;78;21607;-62
2022/09/29 07:57:48;;;;;;;2.52;1.07;;;;;;;35.35;31.51;100873.51;1834999;78;21073;-62
2022/09/29 08:00:17;;;;;;;5.50;1.30;;;;;;;35.27;30.60;100875.16;1835011;78;21112;-63
2022/09/29 08:02:46;;;;;;;6.42;1.30;;;;;;;35.08;29.52;100870.59;1833314;77;21094;-62
2022/09/29 08:05:16;;;;;;;2.95;1.10;;;;;;;35.06;29.81;100869.44;1832447;78;21077;-64
2022/09/29 08:07:48;;;;;;;2.37;1.22;;;;;;;35.05;29.47;100868.32;1832345;78;21123;-62
2022/09/29 08:10:17;;;;;;;2.90;1.00;;;;;;;35.00;29.89;100875.80;1832557;78;21026;-62
2022/09/29 08:12:46;;;;;;;3.45;1.10;;;;;;;35.00;29.75;100875.80;1832299;78;21085;-62
2022/09/29 08:15:15;;;;;;;3.08;1.57;;;;;;;35.22;29.54;100869.50;1832366;78;21607;-62
2022/09/29 08:17:43;;;;;;;4.37;1.17;;;;;;;34.74;29.32;100871.30;1832495;78;21054;-63
2022/09/29 08:20:14;;;;;;;2.45;1.10;;;;;;;32.97;31.49;100870.27;1832330;78;21141;-62
2022/09/29 08:22:42;;;;;;;4.10;1.57;;;;;;;32.84;31.43;100872.96;1832483;78;21088;-62
2022/09/29 08:25:11;;;;;;;1.85;0.90;;;;;;;33.56;31.19;100873.38;1832381;78;21120;-62
2022/09/29 08:27:40;;;;;;;3.55;1.25;;;;;;;34.11;30.60;100866.37;1832354;78;21054;-62
2022/09/29 08:30:10;;;;;;;3.20;1.22;;;;;;;34.75;30.27;100863.39;1832411;78;21114;-62
2022/09/29 08:32:39;;;;;;;3.55;1.30;;;;;;;35.55;29.91;100866.53;1832222;78;21097;-63
2022/09/29 08:35:09;;;;;;;4.05;1.40;;;;;;;35.97;29.40;100851.82;1832608;78;21119;-63
2022/09/29 08:37:38;;;;;;;2.72;0.90;;;;;;;35.91;27.87;100851.82;1832353;78;21081;-64
2022/09/29 08:40:07;;;;;;;2.92;1.17;;;;;;;36.21;28.63;100866.20;1832582;78;21062;-63
2022/09/29 08:42:50;;;;;;;3.10;1.40;;;;;;;36.45;28.08;100868.06;1832345;78;21054;-63
2022/09/29 08:45:30;;;;;;;2.45;1.10;;;;;;;36.55;28.17;100872.17;1832340;77;21172;-63
2022/09/29 08:48:08;;;;;;;4.70;1.27;;;;;;;36.58;28.56;100868.44;1832348;78;21113;-63
2022/09/29 08:50:39;;;;;;;2.85;1.10;;;;;;;37.08;28.38;100876.47;1831885;78;21650;-63
2022/09/29 08:53:11;;;;;;;5.53;1.10;;;;;;;37.15;27.93;100874.18;1832325;78;21126;-63
2022/09/29 08:55:55;;;;;;;5.78;1.62;;;;;;;36.59;28.02;100872.84;1832535;78;21113;-64
2022/09/29 08:58:24;;;;;;;3.22;1.10;;;;;;;36.86;27.88;100870.64;1832356;78;21513;-64
2022/09/29 09:01:13;;;;;;;6.37;1.60;;;;;;;37.16;27.46;100873.12;1832427;78;21022;-64
2022/09/29 09:03:48;;;;;;;4.15;1.30;;;;;;;37.29;27.33;100879.24;1832362;78;21082;-65
2022/09/29 09:06:23;;;;;;;5.97;1.95;;;;;;;37.76;27.07;100880.47;1832459;78;21128;-63
2022/09/29 09:09:03;;;;;;;6.08;1.45;;;;;;;37.61;26.70;100881.73;1832315;78;21097;-63
2022/09/29 09:12:06;;;;;;;1.85;1.00;;;;;;;37.70;26.80;100886.89;1831642;78;21126;-62
2022/09/29 09:14:54;;;;;;;5.70;1.50;;;;;;;37.65;26.88;100889.82;1832313;78;21140;-62
2022/09/29 09:17:51;;;;;;;3.15;1.22;;;;;;;36.41;27.31;100881.07;1831423;78;21153;-63
2022/09/29 09:20:35;;;;;;;4.58;1.50;;;;;;;35.24;28.95;100883.80;1790517;80;21133;-62
2022/09/29 09:23:19;;;;;;;2.58;1.55;;;;;;;35.38;28.97;100879.09;1790607;80;21049;-62
2022/09/29 09:25:53;;;;;;;2.30;1.17;;;;;;;35.11;29.32;100883.84;1775189;79;21085;-62
2022/09/29 09:28:28;;;;;;;9.73;2.12;;;;;;;34.11;30.44;100883.59;1789176;80;21065;-62
2022/09/29 09:31:15;;;;;;;2.80;1.27;;;;;;;32.95;31.42;100876.46;1790623;80;21057;-64
2022/09/29 09:33:46;;;;;;;2.58;1.30;;;;;;;31.98;32.67;100882.76;1790546;80;21563;-63
2022/09/29 09:36:25;;;;;;;4.30;1.27;;;;;;;31.08;33.88;100899.45;1790431;80;21160;-63
2022/09/29 09:38:59;;;;;;;2.83;1.77;;;;;;;30.35;34.89;100897.91;1790001;80;21480;-63
2022/09/29 09:41:30;;;;;;;3.98;2.42;;;;;;;29.77;35.59;100899.43;1790382;79;21167;-63
2022/09/29 09:44:19;;;;;;;4.92;2.00;;;;;;;29.28;36.34;100900.61;1790589;80;21326;-63
2022/09/29 09:46:51;;;;;;;6.92;3.37;;;;;;;28.98;36.87;100896.85;1789395;80;21057;-63
2022/09/29 09:49:28;;;;;;;13.70;2.05;;;;;;;28.80;37.49;100892.51;1790601;79;21076;-63
2022/09/29 09:52:11;;;;;;;9.28;6.83;;;;;;;28.99;37.74;100893.10;1790396;80;21057;-63
2022/09/29 09:54:43;;;;;;;7.10;3.70;;;;;;;29.75;37.25;100893.34;1790581;80;21500;-63
2022/09/29 09:57:27;;;;;;;1.98;1.60;;;;;;;31.49;35.68;100886.62;1790864;80;21131;-63
2022/09/29 10:00:16;;;;;;;6.42;2.40;;;;;;;32.60;33.76;100877.87;1790690;79;21057;-63
2022/09/29 10:02:54;;;;;;;4.67;2.00;;;;;;;33.18;32.38;100877.52;1787811;80;21030;-63
2022/09/29 10:05:28;;;;;;;5.05;1.25;;;;;;;33.16;31.50;100885.58;1769451;81;21090;-62
2022/09/29 10:07:58;;;;;;;4.95;1.12;;;;;;;33.20;31.80;100892.30;1767667;81;21058;-63
2022/09/29 10:10:29;;;;;;;7.55;1.47;;;;;;;33.56;31.41;100891.95;1769335;81;21579;-65
2022/09/29 10:13:10;;;;;;;4.28;1.40;;;;;;;33.51;30.91;100884.91;1769566;81;21167;-63
2022/09/29 10:15:41;;;;;;;4.05;1.30;;;;;;;33.45;31.18;100891.21;1769447;81;21054;-63
2022/09/29 10:18:19;;;;;;;3.25;1.02;;;;;;;33.82;31.16;100893.89;1768662;81;21077;-63
2022/09/29 10:20:48;;;;;;;2.90;1.20;;;;;;;34.09;30.94;100884.33;1769376;80;21030;-64
2022/09/29 10:23:32;;;;;;;3.62;1.02;;;;;;;34.16;30.57;100887.04;1769406;81;21062;-62
2022/09/29 10:26:16;;;;;;;5.35;1.50;;;;;;;34.13;30.64;100889.68;1769547;80;21097;-63
2022/09/29 10:28:48;;;;;;;1.90;1.10;;;;;;;34.09;30.56;100884.33;1769455;81;21140;-63
2022/09/29 10:31:20;;;;;;;4.37;1.40;;;;;;;34.32;30.63;100892.09;1768471;81;21145;-64
2022/09/29 10:33:57;;;;;;;6.60;1.33;;;;;;;33.36;30.47;100892.45;1769707;80;21058;-63
2022/09/29 10:36:29;;;;;;;2.90;1.25;;;;;;;31.87;32.18;100884.13;1769473;80;21129;-63
2022/09/29 10:38:57;;;;;;;5.03;1.27;;;;;;;31.07;33.40;100888.76;1769820;80;21055;-62
2022/09/29 10:41:27;;;;;;;3.83;1.10;;;;;;;31.47;33.21;100885.13;1769448;81;21052;-63
2022/09/29 10:43:58;;;;;;;3.60;1.25;;;;;;;31.77;32.67;100888.56;1769419;80;21164;-63
2022/09/29 10:46:49;;;;;;;4.60;1.20;;;;;;;31.73;32.15;100895.44;1769768;80;21066;-63
2022/09/29 10:49:21;;;;;;;2.62;1.20;;;;;;;31.90;32.51;100888.67;1769404;81;21577;-63
2022/09/29 10:52:01;;;;;;;2.05;1.17;;;;;;;32.23;32.00;100888.11;1769433;81;21054;-63
2022/09/29 10:54:35;;;;;;;2.33;1.10;;;;;;;32.18;31.82;100884.30;1769451;81;21473;-63
2022/09/29 10:57:15;;;;;;;2.75;1.00;;;;;;;32.06;31.74;100880.77;1769498;80;21059;-62
2022/09/29 10:59:49;;;;;;;3.30;0.80;;;;;;;31.97;31.80;100891.45;1769402;81;21509;-62
2022/09/29 11:02:24;;;;;;;2.42;1.10;;;;;;;32.09;31.77;100884.97;1769531;81;21054;-62
2022/09/29 11:04:56;;;;;;;4.72;1.00;;;;;;;31.75;31.60;100875.14;1781165;78;21073;-63
2022/09/29 11:07:25;;;;;;;6.92;1.10;;;;;;;31.46;31.91;100891.05;1785543;80;21140;-63
2022/09/29 11:09:54;;;;;;;1.77;0.72;;;;;;;31.13;31.49;100897.00;1785512;79;21575;-62
2022/09/29 11:12:40;;;;;;;5.30;1.22;;;;;;;30.73;31.86;100888.84;1785559;80;21069;-62
2022/09/29 11:15:27;;;;;;;1.20;0.93;;;;;;;30.53;32.37;100894.00;1785472;80;21086;-64
2022/09/29 11:17:56;;;;;;;3.12;1.45;;;;;;;30.37;32.66;100889.05;1785536;80;21140;-63
2022/09/29 11:20:28;;;;;;;2.52;1.20;;;;;;;30.06;33.36;100907.34;1785531;80;21580;-62
2022/09/29 11:23:13;;;;;;;5.45;1.32;;;;;;;29.89;33.93;100907.48;1879194;74;21103;-62
2022/09/29 11:26:04;;;;;;;3.30;1.52;;;;;;;29.71;34.36;100913.70;1903856;75;21109;-63
2022/09/29 11:28:54;;;;;;;4.40;1.30;;;;;;;29.31;34.67;100913.81;1918884;75;21110;-63
2022/09/29 11:31:32;;;;;;;3.00;1.22;;;;;;;28.81;35.49;100899.63;1921015;75;21110;-63
2022/09/29 11:34:06;;;;;;;3.83;1.67;;;;;;;28.53;36.32;100912.74;1921714;75;21004;-63
2022/09/29 11:36:47;;;;;;;3.05;1.35;;;;;;;28.10;37.66;100910.25;1920036;75;21454;-63
2022/09/29 11:39:40;;;;;;;4.03;1.52;;;;;;;27.65;38.15;100918.87;1921794;75;21059;-63
2022/09/29 11:42:24;;;;;;;4.05;1.45;;;;;;;27.38;39.29;100901.91;1921901;75;21115;-65
2022/09/29 11:45:02;;;;;;;7.58;1.60;;;;;;;27.24;39.00;100916.02;1921674;74;21032;-63
2022/09/29 11:48:07;;;;;;;4.90;1.40;;;;;;;26.97;39.55;100909.88;1921859;75;21571;-64
2022/09/29 11:50:58;;;;;;;3.27;1.30;;;;;;;26.93;40.10;100926.91;1918902;75;21067;-64
2022/09/29 11:53:52;;;;;;;4.67;1.42;;;;;;;26.96;40.06;100930.66;1921510;75;21039;-64
2022/09/29 11:56:54;;;;;;;3.35;1.20;;;;;;;26.92;40.40;100921.16;1921893;75;21544;-63
2022/09/29 11:59:31;;;;;;;6.35;1.67;;;;;;;26.80;40.32;100924.30;1957779;73;21463;-63
2022/09/29 12:02:21;;;;;;;2.15;1.37;;;;;;;26.58;40.43;100919.28;1957884;73;21126;-63